sensor_id;sensor_type;location;lat;lon;timestamp;P1;durP1;ratioP1;P2;durP2;ratioP2
62997;SDS011;55949;52.590;7.330;2023-01-06T00:00:26;28.00;;;14.20;;
62997;SDS011;55949;52.590;7.330;2023-01-06T00:01:27;27.35;;;12.02;;
62997;SDS011;55949;52.590;7.330;2023-01-06T00:02:28;26.95;;;14.15;;
62997;SDS011;55949;52.590;7.330;2023-01-06T00:03:29;31.63;;;14.57;;
62997;SDS011;55949;52.590;7.330;2023-01-06T00:04:29;24.80;;;13.38;;
62997;SDS011;55949;52.590;7.330;2023-01-06T00:05:30;23.38;;;12.52;;
62997;SDS011;55949;52.590;7.330;2023-01-06T00:06:31;27.55;;;11.80;;
62997;SDS011;55949;52.590;7.330;2023-01-06T00:07:33;27.23;;;12.73;;
62997;SDS011;55949;52.590;7.330;2023-01-06T00:08:34;24.67;;;12.82;;
62997;SDS011;55949;52.590;7.330;2023-01-06T00:09:35;22.55;;;12.60;;
62997;SDS011;55949;52.590;7.330;2023-01-06T00:10:37;22.42;;;11.93;;
62997;SDS011;55949;52.590;7.330;2023-01-06T00:11:38;28.92;;;12.50;;
62997;SDS011;55949;52.590;7.330;2023-01-06T00:12:39;25.58;;;13.18;;
62997;SDS011;55949;52.590;7.330;2023-01-06T00:13:42;28.05;;;12.93;;
62997;SDS011;55949;52.590;7.330;2023-01-06T00:14:43;23.90;;;12.30;;
62997;SDS011;55949;52.590;7.330;2023-01-06T00:15:45;26.70;;;13.00;;
62997;SDS011;55949;52.590;7.330;2023-01-06T00:16:46;26.92;;;11.15;;
62997;SDS011;55949;52.590;7.330;2023-01-06T00:17:47;26.23;;;12.15;;
62997;SDS011;55949;52.590;7.330;2023-01-06T00:18:47;24.20;;;11.77;;
62997;SDS011;55949;52.590;7.330;2023-01-06T00:19:48;24.70;;;12.43;;
62997;SDS011;55949;52.590;7.330;2023-01-06T00:20:49;24.00;;;12.38;;
62997;SDS011;55949;52.590;7.330;2023-01-06T00:21:50;26.08;;;10.88;;
62997;SDS011;55949;52.590;7.330;2023-01-06T00:22:50;24.88;;;11.77;;
62997;SDS011;55949;52.590;7.330;2023-01-06T00:23:51;25.73;;;12.70;;
62997;SDS011;55949;52.590;7.330;2023-01-06T00:24:52;23.20;;;12.95;;
62997;SDS011;55949;52.590;7.330;2023-01-06T00:25:53;24.13;;;11.13;;
62997;SDS011;55949;52.590;7.330;2023-01-06T00:26:53;20.98;;;11.75;;
62997;SDS011;55949;52.590;7.330;2023-01-06T00:27:54;22.55;;;11.93;;
62997;SDS011;55949;52.590;7.330;2023-01-06T00:28:55;25.55;;;11.75;;
62997;SDS011;55949;52.590;7.330;2023-01-06T00:29:57;21.90;;;10.80;;
62997;SDS011;55949;52.590;7.330;2023-01-06T00:30:58;25.08;;;11.70;;
62997;SDS011;55949;52.590;7.330;2023-01-06T00:31:59;16.27;;;10.27;;
62997;SDS011;55949;52.590;7.330;2023-01-06T00:33:00;21.15;;;10.90;;
62997;SDS011;55949;52.590;7.330;2023-01-06T00:34:01;19.35;;;9.38;;
62997;SDS011;55949;52.590;7.330;2023-01-06T00:35:01;24.75;;;11.73;;
62997;SDS011;55949;52.590;7.330;2023-01-06T00:36:03;19.58;;;10.73;;
62997;SDS011;55949;52.590;7.330;2023-01-06T00:37:04;20.00;;;9.65;;
62997;SDS011;55949;52.590;7.330;2023-01-06T00:38:05;21.90;;;11.07;;
62997;SDS011;55949;52.590;7.330;2023-01-06T00:39:06;20.00;;;10.02;;
62997;SDS011;55949;52.590;7.330;2023-01-06T00:40:07;17.63;;;10.23;;
62997;SDS011;55949;52.590;7.330;2023-01-06T00:41:09;16.60;;;8.75;;
62997;SDS011;55949;52.590;7.330;2023-01-06T00:42:30;13.80;;;7.55;;
62997;SDS011;55949;52.590;7.330;2023-01-06T00:43:30;17.85;;;8.93;;
62997;SDS011;55949;52.590;7.330;2023-01-06T00:44:38;17.10;;;9.68;;
62997;SDS011;55949;52.590;7.330;2023-01-06T00:45:39;18.15;;;9.52;;
62997;SDS011;55949;52.590;7.330;2023-01-06T00:46:39;15.75;;;8.93;;
62997;SDS011;55949;52.590;7.330;2023-01-06T00:47:40;15.88;;;7.85;;
62997;SDS011;55949;52.590;7.330;2023-01-06T00:48:41;18.52;;;9.68;;
62997;SDS011;55949;52.590;7.330;2023-01-06T00:49:43;17.65;;;8.48;;
62997;SDS011;55949;52.590;7.330;2023-01-06T00:50:44;18.95;;;9.10;;
62997;SDS011;55949;52.590;7.330;2023-01-06T00:51:44;14.05;;;8.02;;
62997;SDS011;55949;52.590;7.330;2023-01-06T00:52:49;17.73;;;8.50;;
62997;SDS011;55949;52.590;7.330;2023-01-06T00:53:50;14.90;;;8.35;;
62997;SDS011;55949;52.590;7.330;2023-01-06T00:54:50;12.32;;;7.53;;
62997;SDS011;55949;52.590;7.330;2023-01-06T00:55:57;15.02;;;7.72;;
62997;SDS011;55949;52.590;7.330;2023-01-06T00:56:59;13.25;;;7.65;;
62997;SDS011;55949;52.590;7.330;2023-01-06T00:58:00;17.63;;;7.53;;
62997;SDS011;55949;52.590;7.330;2023-01-06T00:59:01;12.43;;;7.47;;
62997;SDS011;55949;52.590;7.330;2023-01-06T01:00:02;12.45;;;7.72;;
62997;SDS011;55949;52.590;7.330;2023-01-06T01:01:07;18.33;;;7.22;;
62997;SDS011;55949;52.590;7.330;2023-01-06T01:02:08;15.02;;;7.20;;
62997;SDS011;55949;52.590;7.330;2023-01-06T01:03:09;10.07;;;5.78;;
62997;SDS011;55949;52.590;7.330;2023-01-06T01:04:09;11.13;;;7.13;;
62997;SDS011;55949;52.590;7.330;2023-01-06T01:05:11;14.57;;;7.45;;
62997;SDS011;55949;52.590;7.330;2023-01-06T01:06:12;12.52;;;7.45;;
62997;SDS011;55949;52.590;7.330;2023-01-06T01:07:13;9.68;;;6.82;;
62997;SDS011;55949;52.590;7.330;2023-01-06T01:08:13;15.48;;;6.57;;
62997;SDS011;55949;52.590;7.330;2023-01-06T01:09:15;11.88;;;6.72;;
62997;SDS011;55949;52.590;7.330;2023-01-06T01:11:25;12.63;;;6.85;;
62997;SDS011;55949;52.590;7.330;2023-01-06T01:12:45;13.80;;;5.80;;
62997;SDS011;55949;52.590;7.330;2023-01-06T01:13:45;13.60;;;6.03;;
62997;SDS011;55949;52.590;7.330;2023-01-06T01:14:48;14.45;;;5.90;;
62997;SDS011;55949;52.590;7.330;2023-01-06T01:15:50;12.35;;;6.20;;
62997;SDS011;55949;52.590;7.330;2023-01-06T01:16:50;14.23;;;6.28;;
62997;SDS011;55949;52.590;7.330;2023-01-06T01:17:51;13.77;;;6.30;;
62997;SDS011;55949;52.590;7.330;2023-01-06T01:18:52;13.40;;;5.50;;
62997;SDS011;55949;52.590;7.330;2023-01-06T01:19:53;15.15;;;5.78;;
62997;SDS011;55949;52.590;7.330;2023-01-06T01:20:55;8.90;;;4.97;;
62997;SDS011;55949;52.590;7.330;2023-01-06T01:21:56;11.48;;;5.63;;
62997;SDS011;55949;52.590;7.330;2023-01-06T01:22:57;10.15;;;4.15;;
62997;SDS011;55949;52.590;7.330;2023-01-06T01:23:58;10.70;;;5.13;;
62997;SDS011;55949;52.590;7.330;2023-01-06T01:24:58;14.57;;;5.00;;
62997;SDS011;55949;52.590;7.330;2023-01-06T01:25:59;11.60;;;6.05;;
62997;SDS011;55949;52.590;7.330;2023-01-06T01:27:00;12.80;;;5.00;;
62997;SDS011;55949;52.590;7.330;2023-01-06T01:28:01;12.70;;;5.35;;
62997;SDS011;55949;52.590;7.330;2023-01-06T01:29:01;8.43;;;4.72;;
62997;SDS011;55949;52.590;7.330;2023-01-06T01:30:03;8.57;;;4.18;;
62997;SDS011;55949;52.590;7.330;2023-01-06T01:31:04;11.35;;;4.60;;
62997;SDS011;55949;52.590;7.330;2023-01-06T01:32:05;9.15;;;4.88;;
62997;SDS011;55949;52.590;7.330;2023-01-06T01:33:06;9.57;;;4.90;;
62997;SDS011;55949;52.590;7.330;2023-01-06T01:34:07;9.05;;;4.22;;
62997;SDS011;55949;52.590;7.330;2023-01-06T01:35:09;8.20;;;3.63;;
62997;SDS011;55949;52.590;7.330;2023-01-06T01:36:14;9.65;;;4.65;;
62997;SDS011;55949;52.590;7.330;2023-01-06T01:37:16;8.00;;;3.95;;
62997;SDS011;55949;52.590;7.330;2023-01-06T01:38:17;10.80;;;4.47;;
62997;SDS011;55949;52.590;7.330;2023-01-06T01:39:18;9.95;;;3.80;;
62997;SDS011;55949;52.590;7.330;2023-01-06T01:40:21;10.05;;;4.25;;
62997;SDS011;55949;52.590;7.330;2023-01-06T01:41:22;7.28;;;4.35;;
62997;SDS011;55949;52.590;7.330;2023-01-06T01:42:24;6.88;;;3.75;;
62997;SDS011;55949;52.590;7.330;2023-01-06T01:43:25;10.93;;;4.90;;
62997;SDS011;55949;52.590;7.330;2023-01-06T01:44:54;7.13;;;3.70;;
62997;SDS011;55949;52.590;7.330;2023-01-06T01:45:57;9.65;;;4.68;;
62997;SDS011;55949;52.590;7.330;2023-01-06T01:46:57;8.10;;;4.03;;
62997;SDS011;55949;52.590;7.330;2023-01-06T01:48:00;9.43;;;4.45;;
62997;SDS011;55949;52.590;7.330;2023-01-06T01:49:05;8.93;;;4.28;;
62997;SDS011;55949;52.590;7.330;2023-01-06T01:50:36;12.05;;;4.60;;
62997;SDS011;55949;52.590;7.330;2023-01-06T01:51:42;10.05;;;3.88;;
62997;SDS011;55949;52.590;7.330;2023-01-06T01:52:45;7.43;;;4.30;;
62997;SDS011;55949;52.590;7.330;2023-01-06T01:53:50;6.97;;;4.35;;
62997;SDS011;55949;52.590;7.330;2023-01-06T01:54:54;9.85;;;4.63;;
62997;SDS011;55949;52.590;7.330;2023-01-06T01:55:56;7.35;;;4.45;;
62997;SDS011;55949;52.590;7.330;2023-01-06T01:57:02;8.38;;;4.10;;
62997;SDS011;55949;52.590;7.330;2023-01-06T01:58:10;9.18;;;4.60;;
62997;SDS011;55949;52.590;7.330;2023-01-06T01:59:16;7.20;;;3.47;;
62997;SDS011;55949;52.590;7.330;2023-01-06T02:00:20;11.18;;;4.15;;
62997;SDS011;55949;52.590;7.330;2023-01-06T02:01:20;11.05;;;4.53;;
62997;SDS011;55949;52.590;7.330;2023-01-06T02:02:21;10.35;;;4.32;;
62997;SDS011;55949;52.590;7.330;2023-01-06T02:03:23;6.57;;;3.83;;
62997;SDS011;55949;52.590;7.330;2023-01-06T02:04:26;8.73;;;4.57;;
62997;SDS011;55949;52.590;7.330;2023-01-06T02:05:28;6.15;;;3.90;;
62997;SDS011;55949;52.590;7.330;2023-01-06T02:06:30;5.22;;;3.80;;
62997;SDS011;55949;52.590;7.330;2023-01-06T02:07:31;6.13;;;3.90;;
62997;SDS011;55949;52.590;7.330;2023-01-06T02:08:36;8.18;;;4.10;;
62997;SDS011;55949;52.590;7.330;2023-01-06T02:09:45;8.07;;;4.10;;
62997;SDS011;55949;52.590;7.330;2023-01-06T02:10:58;5.75;;;2.95;;
62997;SDS011;55949;52.590;7.330;2023-01-06T02:11:58;8.15;;;3.35;;
62997;SDS011;55949;52.590;7.330;2023-01-06T02:12:59;6.32;;;4.57;;
62997;SDS011;55949;52.590;7.330;2023-01-06T02:14:09;6.72;;;4.30;;
62997;SDS011;55949;52.590;7.330;2023-01-06T02:15:15;10.55;;;4.40;;
62997;SDS011;55949;52.590;7.330;2023-01-06T02:16:28;9.38;;;4.43;;
62997;SDS011;55949;52.590;7.330;2023-01-06T02:20:26;8.80;;;4.30;;
62997;SDS011;55949;52.590;7.330;2023-01-06T02:22:00;9.05;;;5.35;;
62997;SDS011;55949;52.590;7.330;2023-01-06T02:27:25;10.82;;;5.65;;
62997;SDS011;55949;52.590;7.330;2023-01-06T02:35:51;13.20;;;8.10;;
62997;SDS011;55949;52.590;7.330;2023-01-06T02:40:07;11.70;;;7.60;;
62997;SDS011;55949;52.590;7.330;2023-01-06T02:44:47;14.68;;;10.82;;
62997;SDS011;55949;52.590;7.330;2023-01-06T02:46:06;15.55;;;9.18;;
62997;SDS011;55949;52.590;7.330;2023-01-06T02:47:14;14.93;;;8.83;;
62997;SDS011;55949;52.590;7.330;2023-01-06T02:48:22;17.35;;;10.55;;
62997;SDS011;55949;52.590;7.330;2023-01-06T02:50:43;15.98;;;9.65;;
62997;SDS011;55949;52.590;7.330;2023-01-06T02:51:54;17.25;;;10.57;;
62997;SDS011;55949;52.590;7.330;2023-01-06T02:53:04;16.23;;;10.27;;
62997;SDS011;55949;52.590;7.330;2023-01-06T02:55:34;16.83;;;11.07;;
62997;SDS011;55949;52.590;7.330;2023-01-06T02:56:48;15.85;;;9.73;;
62997;SDS011;55949;52.590;7.330;2023-01-06T02:59:04;15.82;;;11.38;;
62997;SDS011;55949;52.590;7.330;2023-01-06T03:00:56;13.35;;;9.10;;
62997;SDS011;55949;52.590;7.330;2023-01-06T03:01:37;16.45;;;9.98;;
62997;SDS011;55949;52.590;7.330;2023-01-06T03:02:41;14.85;;;9.40;;
62997;SDS011;55949;52.590;7.330;2023-01-06T03:03:47;17.10;;;9.48;;
62997;SDS011;55949;52.590;7.330;2023-01-06T03:04:50;17.38;;;10.70;;
62997;SDS011;55949;52.590;7.330;2023-01-06T03:05:55;16.88;;;11.85;;
62997;SDS011;55949;52.590;7.330;2023-01-06T03:07:02;14.82;;;9.75;;
62997;SDS011;55949;52.590;7.330;2023-01-06T03:08:10;12.88;;;8.35;;
62997;SDS011;55949;52.590;7.330;2023-01-06T03:09:15;21.75;;;10.93;;
62997;SDS011;55949;52.590;7.330;2023-01-06T03:10:20;18.02;;;10.20;;
62997;SDS011;55949;52.590;7.330;2023-01-06T03:11:24;16.52;;;9.15;;
62997;SDS011;55949;52.590;7.330;2023-01-06T03:12:50;17.45;;;9.85;;
62997;SDS011;55949;52.590;7.330;2023-01-06T03:14:03;17.20;;;10.07;;
62997;SDS011;55949;52.590;7.330;2023-01-06T03:15:16;17.38;;;10.10;;
62997;SDS011;55949;52.590;7.330;2023-01-06T03:16:17;13.93;;;9.07;;
62997;SDS011;55949;52.590;7.330;2023-01-06T03:17:19;15.82;;;9.48;;
62997;SDS011;55949;52.590;7.330;2023-01-06T03:18:20;15.30;;;9.60;;
62997;SDS011;55949;52.590;7.330;2023-01-06T03:19:21;15.27;;;9.70;;
62997;SDS011;55949;52.590;7.330;2023-01-06T03:20:23;15.65;;;10.20;;
62997;SDS011;55949;52.590;7.330;2023-01-06T03:21:25;14.38;;;9.20;;
62997;SDS011;55949;52.590;7.330;2023-01-06T03:22:29;11.85;;;8.68;;
62997;SDS011;55949;52.590;7.330;2023-01-06T03:23:32;16.77;;;8.75;;
62997;SDS011;55949;52.590;7.330;2023-01-06T03:24:34;17.55;;;10.00;;
62997;SDS011;55949;52.590;7.330;2023-01-06T03:25:36;11.85;;;6.78;;
62997;SDS011;55949;52.590;7.330;2023-01-06T03:26:37;17.65;;;8.50;;
62997;SDS011;55949;52.590;7.330;2023-01-06T03:27:39;17.30;;;9.05;;
62997;SDS011;55949;52.590;7.330;2023-01-06T03:28:39;11.68;;;8.07;;
62997;SDS011;55949;52.590;7.330;2023-01-06T03:29:40;12.50;;;7.88;;
62997;SDS011;55949;52.590;7.330;2023-01-06T03:31:28;17.00;;;8.38;;
62997;SDS011;55949;52.590;7.330;2023-01-06T03:35:33;13.23;;;7.05;;
62997;SDS011;55949;52.590;7.330;2023-01-06T03:38:03;14.07;;;7.18;;
62997;SDS011;55949;52.590;7.330;2023-01-06T03:39:24;10.88;;;7.22;;
62997;SDS011;55949;52.590;7.330;2023-01-06T03:40:54;10.48;;;6.45;;
62997;SDS011;55949;52.590;7.330;2023-01-06T03:43:57;11.02;;;6.78;;
62997;SDS011;55949;52.590;7.330;2023-01-06T03:47:30;9.05;;;6.10;;
62997;SDS011;55949;52.590;7.330;2023-01-06T03:50:28;7.70;;;4.78;;
62997;SDS011;55949;52.590;7.330;2023-01-06T03:53:56;9.75;;;5.57;;
62997;SDS011;55949;52.590;7.330;2023-01-06T03:55:29;12.07;;;6.05;;
62997;SDS011;55949;52.590;7.330;2023-01-06T03:56:38;14.25;;;5.20;;
62997;SDS011;55949;52.590;7.330;2023-01-06T03:57:50;11.35;;;5.15;;
62997;SDS011;55949;52.590;7.330;2023-01-06T03:58:56;9.13;;;5.63;;
62997;SDS011;55949;52.590;7.330;2023-01-06T04:00:08;11.38;;;5.72;;
62997;SDS011;55949;52.590;7.330;2023-01-06T04:01:12;8.52;;;4.93;;
62997;SDS011;55949;52.590;7.330;2023-01-06T04:02:14;8.20;;;5.03;;
62997;SDS011;55949;52.590;7.330;2023-01-06T04:03:18;7.20;;;4.65;;
62997;SDS011;55949;52.590;7.330;2023-01-06T04:04:24;9.10;;;4.55;;
62997;SDS011;55949;52.590;7.330;2023-01-06T04:05:25;10.20;;;4.90;;
62997;SDS011;55949;52.590;7.330;2023-01-06T04:06:28;9.60;;;5.00;;
62997;SDS011;55949;52.590;7.330;2023-01-06T04:07:28;7.13;;;3.88;;
62997;SDS011;55949;52.590;7.330;2023-01-06T04:08:29;9.55;;;4.47;;
62997;SDS011;55949;52.590;7.330;2023-01-06T04:09:30;6.93;;;4.30;;
62997;SDS011;55949;52.590;7.330;2023-01-06T04:10:31;9.30;;;5.20;;
62997;SDS011;55949;52.590;7.330;2023-01-06T04:11:32;8.70;;;5.18;;
62997;SDS011;55949;52.590;7.330;2023-01-06T04:12:51;6.88;;;4.65;;
62997;SDS011;55949;52.590;7.330;2023-01-06T04:13:52;7.70;;;4.32;;
62997;SDS011;55949;52.590;7.330;2023-01-06T04:14:53;5.63;;;3.50;;
62997;SDS011;55949;52.590;7.330;2023-01-06T04:15:54;7.78;;;4.90;;
62997;SDS011;55949;52.590;7.330;2023-01-06T04:16:54;8.23;;;4.82;;
62997;SDS011;55949;52.590;7.330;2023-01-06T04:17:55;7.32;;;4.55;;
62997;SDS011;55949;52.590;7.330;2023-01-06T04:18:56;6.50;;;4.13;;
62997;SDS011;55949;52.590;7.330;2023-01-06T04:19:56;8.63;;;4.65;;
62997;SDS011;55949;52.590;7.330;2023-01-06T04:20:57;8.23;;;4.22;;
62997;SDS011;55949;52.590;7.330;2023-01-06T04:21:58;6.80;;;3.58;;
62997;SDS011;55949;52.590;7.330;2023-01-06T04:22:59;9.18;;;4.13;;
62997;SDS011;55949;52.590;7.330;2023-01-06T04:23:59;7.10;;;4.45;;
62997;SDS011;55949;52.590;7.330;2023-01-06T04:25:00;10.48;;;4.18;;
62997;SDS011;55949;52.590;7.330;2023-01-06T04:26:01;7.45;;;3.63;;
62997;SDS011;55949;52.590;7.330;2023-01-06T04:27:02;6.22;;;3.20;;
62997;SDS011;55949;52.590;7.330;2023-01-06T04:28:03;7.00;;;4.00;;
62997;SDS011;55949;52.590;7.330;2023-01-06T04:29:04;8.38;;;3.22;;
62997;SDS011;55949;52.590;7.330;2023-01-06T04:30:05;7.00;;;3.97;;
62997;SDS011;55949;52.590;7.330;2023-01-06T04:31:06;11.43;;;4.68;;
62997;SDS011;55949;52.590;7.330;2023-01-06T04:32:08;6.22;;;2.55;;
62997;SDS011;55949;52.590;7.330;2023-01-06T04:33:09;7.38;;;3.95;;
62997;SDS011;55949;52.590;7.330;2023-01-06T04:34:10;6.90;;;4.22;;
62997;SDS011;55949;52.590;7.330;2023-01-06T04:35:11;9.35;;;4.15;;
62997;SDS011;55949;52.590;7.330;2023-01-06T04:36:11;8.25;;;3.60;;
62997;SDS011;55949;52.590;7.330;2023-01-06T04:37:13;6.65;;;4.03;;
62997;SDS011;55949;52.590;7.330;2023-01-06T04:38:14;5.68;;;3.78;;
62997;SDS011;55949;52.590;7.330;2023-01-06T04:39:15;11.27;;;4.53;;
62997;SDS011;55949;52.590;7.330;2023-01-06T04:40:16;8.43;;;4.30;;
62997;SDS011;55949;52.590;7.330;2023-01-06T04:41:16;7.47;;;3.75;;
62997;SDS011;55949;52.590;7.330;2023-01-06T04:42:17;8.30;;;4.05;;
62997;SDS011;55949;52.590;7.330;2023-01-06T04:43:18;9.45;;;4.45;;
62997;SDS011;55949;52.590;7.330;2023-01-06T04:44:19;6.07;;;4.13;;
62997;SDS011;55949;52.590;7.330;2023-01-06T04:45:20;7.90;;;3.95;;
62997;SDS011;55949;52.590;7.330;2023-01-06T04:46:21;7.95;;;5.13;;
62997;SDS011;55949;52.590;7.330;2023-01-06T04:47:21;7.72;;;4.78;;
62997;SDS011;55949;52.590;7.330;2023-01-06T04:48:22;9.20;;;4.65;;
62997;SDS011;55949;52.590;7.330;2023-01-06T04:49:23;6.53;;;4.60;;
62997;SDS011;55949;52.590;7.330;2023-01-06T04:50:23;7.75;;;4.88;;
62997;SDS011;55949;52.590;7.330;2023-01-06T04:51:24;5.30;;;3.75;;
62997;SDS011;55949;52.590;7.330;2023-01-06T04:52:25;5.97;;;2.55;;
62997;SDS011;55949;52.590;7.330;2023-01-06T04:53:26;11.02;;;4.85;;
62997;SDS011;55949;52.590;7.330;2023-01-06T04:54:26;9.07;;;4.53;;
62997;SDS011;55949;52.590;7.330;2023-01-06T04:55:27;5.22;;;3.83;;
62997;SDS011;55949;52.590;7.330;2023-01-06T04:56:28;5.82;;;4.00;;
62997;SDS011;55949;52.590;7.330;2023-01-06T04:57:29;6.45;;;4.30;;
62997;SDS011;55949;52.590;7.330;2023-01-06T04:58:30;7.97;;;3.60;;
62997;SDS011;55949;52.590;7.330;2023-01-06T04:59:31;5.72;;;3.42;;
62997;SDS011;55949;52.590;7.330;2023-01-06T05:00:32;6.28;;;3.88;;
62997;SDS011;55949;52.590;7.330;2023-01-06T05:01:32;5.93;;;3.20;;
62997;SDS011;55949;52.590;7.330;2023-01-06T05:02:33;6.88;;;4.22;;
62997;SDS011;55949;52.590;7.330;2023-01-06T05:03:34;8.63;;;4.10;;
62997;SDS011;55949;52.590;7.330;2023-01-06T05:04:35;8.20;;;3.28;;
62997;SDS011;55949;52.590;7.330;2023-01-06T05:05:36;4.90;;;3.05;;
62997;SDS011;55949;52.590;7.330;2023-01-06T05:06:37;6.97;;;3.10;;
62997;SDS011;55949;52.590;7.330;2023-01-06T05:07:39;4.45;;;2.65;;
62997;SDS011;55949;52.590;7.330;2023-01-06T05:08:40;2.72;;;1.98;;
62997;SDS011;55949;52.590;7.330;2023-01-06T05:09:41;6.13;;;2.95;;
62997;SDS011;55949;52.590;7.330;2023-01-06T05:10:42;3.80;;;2.42;;
62997;SDS011;55949;52.590;7.330;2023-01-06T05:11:43;4.07;;;2.42;;
62997;SDS011;55949;52.590;7.330;2023-01-06T05:12:44;4.80;;;2.60;;
62997;SDS011;55949;52.590;7.330;2023-01-06T05:13:44;5.22;;;2.60;;
62997;SDS011;55949;52.590;7.330;2023-01-06T05:14:46;3.67;;;2.08;;
62997;SDS011;55949;52.590;7.330;2023-01-06T05:15:46;3.80;;;1.77;;
62997;SDS011;55949;52.590;7.330;2023-01-06T05:16:47;4.25;;;2.20;;
62997;SDS011;55949;52.590;7.330;2023-01-06T05:17:48;2.47;;;1.58;;
62997;SDS011;55949;52.590;7.330;2023-01-06T05:18:48;3.30;;;1.42;;
62997;SDS011;55949;52.590;7.330;2023-01-06T05:19:49;4.30;;;2.50;;
62997;SDS011;55949;52.590;7.330;2023-01-06T05:20:51;6.28;;;2.65;;
62997;SDS011;55949;52.590;7.330;2023-01-06T05:21:52;4.10;;;2.28;;
62997;SDS011;55949;52.590;7.330;2023-01-06T05:22:53;4.43;;;3.08;;
62997;SDS011;55949;52.590;7.330;2023-01-06T05:23:54;5.57;;;2.78;;
62997;SDS011;55949;52.590;7.330;2023-01-06T05:24:55;5.55;;;3.20;;
62997;SDS011;55949;52.590;7.330;2023-01-06T05:25:56;4.65;;;2.90;;
62997;SDS011;55949;52.590;7.330;2023-01-06T05:26:56;4.43;;;3.05;;
62997;SDS011;55949;52.590;7.330;2023-01-06T05:27:57;5.10;;;2.80;;
62997;SDS011;55949;52.590;7.330;2023-01-06T05:28:58;5.90;;;2.67;;
62997;SDS011;55949;52.590;7.330;2023-01-06T05:29:59;2.58;;;1.73;;
62997;SDS011;55949;52.590;7.330;2023-01-06T05:31:03;6.15;;;2.05;;
62997;SDS011;55949;52.590;7.330;2023-01-06T05:32:04;3.58;;;2.33;;
62997;SDS011;55949;52.590;7.330;2023-01-06T05:33:05;3.83;;;1.73;;
62997;SDS011;55949;52.590;7.330;2023-01-06T05:34:06;5.70;;;1.88;;
62997;SDS011;55949;52.590;7.330;2023-01-06T05:35:09;4.25;;;2.40;;
62997;SDS011;55949;52.590;7.330;2023-01-06T05:36:10;4.85;;;2.17;;
62997;SDS011;55949;52.590;7.330;2023-01-06T05:37:13;5.32;;;2.30;;
62997;SDS011;55949;52.590;7.330;2023-01-06T05:38:13;4.15;;;2.05;;
62997;SDS011;55949;52.590;7.330;2023-01-06T05:39:14;2.95;;;1.98;;
62997;SDS011;55949;52.590;7.330;2023-01-06T05:40:15;3.20;;;1.67;;
62997;SDS011;55949;52.590;7.330;2023-01-06T05:41:15;4.40;;;1.65;;
62997;SDS011;55949;52.590;7.330;2023-01-06T05:42:16;3.70;;;1.67;;
62997;SDS011;55949;52.590;7.330;2023-01-06T05:43:17;4.65;;;1.55;;
62997;SDS011;55949;52.590;7.330;2023-01-06T05:44:18;2.95;;;1.70;;
62997;SDS011;55949;52.590;7.330;2023-01-06T05:45:19;1.55;;;1.13;;
62997;SDS011;55949;52.590;7.330;2023-01-06T05:46:19;2.78;;;1.55;;
62997;SDS011;55949;52.590;7.330;2023-01-06T05:47:20;3.78;;;1.45;;
62997;SDS011;55949;52.590;7.330;2023-01-06T05:48:24;5.00;;;1.67;;
62997;SDS011;55949;52.590;7.330;2023-01-06T05:49:26;5.05;;;1.60;;
62997;SDS011;55949;52.590;7.330;2023-01-06T05:50:27;2.83;;;1.45;;
62997;SDS011;55949;52.590;7.330;2023-01-06T05:51:28;3.22;;;1.25;;
62997;SDS011;55949;52.590;7.330;2023-01-06T05:52:28;2.35;;;0.90;;
62997;SDS011;55949;52.590;7.330;2023-01-06T05:53:30;4.32;;;1.27;;
62997;SDS011;55949;52.590;7.330;2023-01-06T05:54:35;4.07;;;1.20;;
62997;SDS011;55949;52.590;7.330;2023-01-06T05:55:36;1.92;;;1.13;;
62997;SDS011;55949;52.590;7.330;2023-01-06T05:56:37;2.45;;;1.30;;
62997;SDS011;55949;52.590;7.330;2023-01-06T05:57:37;3.95;;;0.90;;
62997;SDS011;55949;52.590;7.330;2023-01-06T05:58:45;3.20;;;0.98;;
62997;SDS011;55949;52.590;7.330;2023-01-06T05:59:49;1.50;;;0.90;;
62997;SDS011;55949;52.590;7.330;2023-01-06T06:00:50;2.15;;;0.90;;
62997;SDS011;55949;52.590;7.330;2023-01-06T06:01:51;2.67;;;1.13;;
62997;SDS011;55949;52.590;7.330;2023-01-06T06:02:52;1.80;;;0.82;;
62997;SDS011;55949;52.590;7.330;2023-01-06T06:03:53;4.93;;;0.90;;
62997;SDS011;55949;52.590;7.330;2023-01-06T06:04:54;1.95;;;0.90;;
62997;SDS011;55949;52.590;7.330;2023-01-06T06:06:00;2.95;;;1.05;;
62997;SDS011;55949;52.590;7.330;2023-01-06T06:08:06;1.73;;;0.90;;
62997;SDS011;55949;52.590;7.330;2023-01-06T06:09:06;4.13;;;0.90;;
62997;SDS011;55949;52.590;7.330;2023-01-06T06:10:07;1.83;;;0.85;;
62997;SDS011;55949;52.590;7.330;2023-01-06T06:11:09;4.35;;;1.00;;
62997;SDS011;55949;52.590;7.330;2023-01-06T06:12:12;1.70;;;0.95;;
62997;SDS011;55949;52.590;7.330;2023-01-06T06:13:13;2.20;;;0.65;;
62997;SDS011;55949;52.590;7.330;2023-01-06T06:14:13;3.22;;;0.93;;
62997;SDS011;55949;52.590;7.330;2023-01-06T06:15:14;1.30;;;0.80;;
62997;SDS011;55949;52.590;7.330;2023-01-06T06:16:15;2.15;;;0.60;;
62997;SDS011;55949;52.590;7.330;2023-01-06T06:17:18;3.85;;;0.90;;
62997;SDS011;55949;52.590;7.330;2023-01-06T06:18:18;3.60;;;0.82;;
62997;SDS011;55949;52.590;7.330;2023-01-06T06:19:19;2.80;;;0.95;;
62997;SDS011;55949;52.590;7.330;2023-01-06T06:20:20;6.20;;;1.20;;
62997;SDS011;55949;52.590;7.330;2023-01-06T06:21:22;4.15;;;0.70;;
62997;SDS011;55949;52.590;7.330;2023-01-06T06:22:24;3.22;;;0.82;;
62997;SDS011;55949;52.590;7.330;2023-01-06T06:23:25;1.85;;;0.68;;
62997;SDS011;55949;52.590;7.330;2023-01-06T06:24:26;2.90;;;0.90;;
62997;SDS011;55949;52.590;7.330;2023-01-06T06:25:26;3.75;;;0.70;;
62997;SDS011;55949;52.590;7.330;2023-01-06T06:26:28;1.70;;;0.90;;
62997;SDS011;55949;52.590;7.330;2023-01-06T06:27:29;3.08;;;1.00;;
62997;SDS011;55949;52.590;7.330;2023-01-06T06:28:31;2.42;;;0.70;;
62997;SDS011;55949;52.590;7.330;2023-01-06T06:29:32;4.68;;;1.23;;
62997;SDS011;55949;52.590;7.330;2023-01-06T06:30:33;1.77;;;0.70;;
62997;SDS011;55949;52.590;7.330;2023-01-06T06:31:34;3.28;;;0.60;;
62997;SDS011;55949;52.590;7.330;2023-01-06T06:32:35;1.30;;;0.85;;
62997;SDS011;55949;52.590;7.330;2023-01-06T06:33:35;1.60;;;0.63;;
62997;SDS011;55949;52.590;7.330;2023-01-06T06:34:36;2.72;;;0.77;;
62997;SDS011;55949;52.590;7.330;2023-01-06T06:35:37;1.67;;;0.80;;
62997;SDS011;55949;52.590;7.330;2023-01-06T06:36:38;2.97;;;0.70;;
62997;SDS011;55949;52.590;7.330;2023-01-06T06:37:38;2.30;;;0.47;;
62997;SDS011;55949;52.590;7.330;2023-01-06T06:38:40;2.75;;;0.95;;
62997;SDS011;55949;52.590;7.330;2023-01-06T06:39:44;1.73;;;0.70;;
62997;SDS011;55949;52.590;7.330;2023-01-06T06:40:45;0.90;;;0.57;;
62997;SDS011;55949;52.590;7.330;2023-01-06T06:41:45;1.15;;;0.65;;
62997;SDS011;55949;52.590;7.330;2023-01-06T06:42:49;4.57;;;0.70;;
62997;SDS011;55949;52.590;7.330;2023-01-06T06:43:51;4.60;;;1.00;;
62997;SDS011;55949;52.590;7.330;2023-01-06T06:44:52;2.55;;;0.70;;
62997;SDS011;55949;52.590;7.330;2023-01-06T06:45:53;2.40;;;0.82;;
62997;SDS011;55949;52.590;7.330;2023-01-06T06:46:54;1.88;;;0.80;;
62997;SDS011;55949;52.590;7.330;2023-01-06T06:47:54;2.47;;;0.90;;
62997;SDS011;55949;52.590;7.330;2023-01-06T06:48:55;1.30;;;0.80;;
62997;SDS011;55949;52.590;7.330;2023-01-06T06:49:56;1.33;;;0.77;;
62997;SDS011;55949;52.590;7.330;2023-01-06T06:51:00;0.93;;;0.60;;
62997;SDS011;55949;52.590;7.330;2023-01-06T06:52:06;2.85;;;1.17;;
62997;SDS011;55949;52.590;7.330;2023-01-06T06:53:06;5.28;;;0.80;;
62997;SDS011;55949;52.590;7.330;2023-01-06T06:54:07;2.08;;;1.00;;
62997;SDS011;55949;52.590;7.330;2023-01-06T06:55:08;2.88;;;0.68;;
62997;SDS011;55949;52.590;7.330;2023-01-06T06:56:09;2.60;;;1.42;;
62997;SDS011;55949;52.590;7.330;2023-01-06T06:57:11;0.80;;;0.70;;